sensor_id;sensor_type;location;lat;lon;timestamp;P1;durP1;ratioP1;P2;durP2;ratioP2
44276;SDS011;29973;43.742;1.236;2023-05-31T00:00:07;10.23;;;6.78;;
44276;SDS011;29973;43.742;1.236;2023-05-31T00:02:33;12.52;;;6.70;;
44276;SDS011;29973;43.742;1.236;2023-05-31T00:04:58;18.23;;;7.07;;
44276;SDS011;29973;43.742;1.236;2023-05-31T00:07:24;11.60;;;6.90;;
44276;SDS011;29973;43.742;1.236;2023-05-31T00:09:50;11.75;;;7.75;;
44276;SDS011;29973;43.742;1.236;2023-05-31T00:12:15;12.43;;;7.35;;
44276;SDS011;29973;43.742;1.236;2023-05-31T00:14:41;11.30;;;6.72;;
44276;SDS011;29973;43.742;1.236;2023-05-31T00:17:07;9.18;;;6.32;;
44276;SDS011;29973;43.742;1.236;2023-05-31T00:19:32;8.98;;;6.35;;
44276;SDS011;29973;43.742;1.236;2023-05-31T00:21:58;13.68;;;7.00;;
44276;SDS011;29973;43.742;1.236;2023-05-31T00:24:24;9.25;;;6.78;;
44276;SDS011;29973;43.742;1.236;2023-05-31T00:26:49;11.75;;;6.78;;
44276;SDS011;29973;43.742;1.236;2023-05-31T00:29:15;10.20;;;6.95;;
44276;SDS011;29973;43.742;1.236;2023-05-31T00:31:41;9.52;;;6.43;;
44276;SDS011;29973;43.742;1.236;2023-05-31T00:34:06;8.70;;;6.47;;
44276;SDS011;29973;43.742;1.236;2023-05-31T00:36:35;13.05;;;6.53;;
44276;SDS011;29973;43.742;1.236;2023-05-31T00:39:00;10.50;;;7.03;;
44276;SDS011;29973;43.742;1.236;2023-05-31T00:41:26;14.93;;;6.90;;
44276;SDS011;29973;43.742;1.236;2023-05-31T00:43:52;9.70;;;6.38;;
44276;SDS011;29973;43.742;1.236;2023-05-31T00:46:25;12.52;;;7.15;;
44276;SDS011;29973;43.742;1.236;2023-05-31T00:48:54;9.57;;;6.35;;
44276;SDS011;29973;43.742;1.236;2023-05-31T00:51:20;9.38;;;6.88;;
44276;SDS011;29973;43.742;1.236;2023-05-31T00:53:46;13.80;;;7.30;;
44276;SDS011;29973;43.742;1.236;2023-05-31T00:56:12;10.45;;;7.05;;
44276;SDS011;29973;43.742;1.236;2023-05-31T00:58:40;16.50;;;7.05;;
44276;SDS011;29973;43.742;1.236;2023-05-31T01:01:07;13.32;;;7.40;;
44276;SDS011;29973;43.742;1.236;2023-05-31T01:03:33;12.55;;;7.13;;
44276;SDS011;29973;43.742;1.236;2023-05-31T01:05:59;12.73;;;7.97;;
44276;SDS011;29973;43.742;1.236;2023-05-31T01:08:25;12.13;;;7.05;;
44276;SDS011;29973;43.742;1.236;2023-05-31T01:10:51;12.77;;;6.85;;
44276;SDS011;29973;43.742;1.236;2023-05-31T01:15:58;18.15;;;8.38;;
44276;SDS011;29973;43.742;1.236;2023-05-31T01:18:45;11.57;;;7.53;;
44276;SDS011;29973;43.742;1.236;2023-05-31T01:26:59;12.63;;;8.02;;
44276;SDS011;29973;43.742;1.236;2023-05-31T01:29:27;15.43;;;8.48;;
44276;SDS011;29973;43.742;1.236;2023-05-31T01:31:55;12.15;;;7.47;;
44276;SDS011;29973;43.742;1.236;2023-05-31T01:34:24;13.15;;;8.18;;
44276;SDS011;29973;43.742;1.236;2023-05-31T01:36:50;14.60;;;8.45;;
44276;SDS011;29973;43.742;1.236;2023-05-31T01:39:17;14.93;;;8.50;;
44276;SDS011;29973;43.742;1.236;2023-05-31T01:41:44;11.85;;;7.20;;
44276;SDS011;29973;43.742;1.236;2023-05-31T01:44:12;13.85;;;7.72;;
44276;SDS011;29973;43.742;1.236;2023-05-31T01:46:40;11.48;;;7.70;;
44276;SDS011;29973;43.742;1.236;2023-05-31T01:49:06;12.80;;;7.43;;
44276;SDS011;29973;43.742;1.236;2023-05-31T01:51:33;13.63;;;7.63;;
44276;SDS011;29973;43.742;1.236;2023-05-31T01:54:02;12.40;;;7.63;;
44276;SDS011;29973;43.742;1.236;2023-05-31T01:56:28;15.15;;;8.43;;
44276;SDS011;29973;43.742;1.236;2023-05-31T01:58:56;12.40;;;7.97;;
44276;SDS011;29973;43.742;1.236;2023-05-31T02:01:23;12.45;;;7.53;;
44276;SDS011;29973;43.742;1.236;2023-05-31T02:03:49;15.98;;;8.73;;
44276;SDS011;29973;43.742;1.236;2023-05-31T02:06:18;17.30;;;7.38;;
44276;SDS011;29973;43.742;1.236;2023-05-31T02:08:44;15.57;;;8.80;;
44276;SDS011;29973;43.742;1.236;2023-05-31T02:11:10;14.05;;;8.18;;
44276;SDS011;29973;43.742;1.236;2023-05-31T02:13:36;13.05;;;8.27;;
44276;SDS011;29973;43.742;1.236;2023-05-31T02:16:02;15.05;;;8.77;;
44276;SDS011;29973;43.742;1.236;2023-05-31T02:18:31;15.68;;;8.38;;
44276;SDS011;29973;43.742;1.236;2023-05-31T02:20:57;18.20;;;8.07;;
44276;SDS011;29973;43.742;1.236;2023-05-31T02:23:23;12.50;;;7.75;;
44276;SDS011;29973;43.742;1.236;2023-05-31T02:25:49;13.13;;;8.43;;
44276;SDS011;29973;43.742;1.236;2023-05-31T02:28:15;17.67;;;8.02;;
44276;SDS011;29973;43.742;1.236;2023-05-31T02:30:41;14.93;;;7.80;;
44276;SDS011;29973;43.742;1.236;2023-05-31T02:33:17;17.85;;;8.13;;
44276;SDS011;29973;43.742;1.236;2023-05-31T02:35:43;13.88;;;8.07;;
44276;SDS011;29973;43.742;1.236;2023-05-31T02:38:09;16.33;;;8.52;;
44276;SDS011;29973;43.742;1.236;2023-05-31T02:40:35;15.57;;;9.02;;
44276;SDS011;29973;43.742;1.236;2023-05-31T02:43:01;14.73;;;8.35;;
44276;SDS011;29973;43.742;1.236;2023-05-31T02:45:27;15.63;;;8.35;;
44276;SDS011;29973;43.742;1.236;2023-05-31T02:47:53;14.27;;;8.65;;
44276;SDS011;29973;43.742;1.236;2023-05-31T02:50:18;14.68;;;8.55;;
44276;SDS011;29973;43.742;1.236;2023-05-31T02:52:44;16.20;;;8.57;;
44276;SDS011;29973;43.742;1.236;2023-05-31T02:55:10;15.32;;;7.78;;
44276;SDS011;29973;43.742;1.236;2023-05-31T02:57:36;12.88;;;8.23;;
44276;SDS011;29973;43.742;1.236;2023-05-31T03:00:03;12.70;;;7.90;;
44276;SDS011;29973;43.742;1.236;2023-05-31T03:02:36;14.85;;;8.82;;
44276;SDS011;29973;43.742;1.236;2023-05-31T03:05:03;16.13;;;7.93;;
44276;SDS011;29973;43.742;1.236;2023-05-31T03:07:30;13.43;;;7.50;;
44276;SDS011;29973;43.742;1.236;2023-05-31T03:09:55;13.35;;;7.93;;
44276;SDS011;29973;43.742;1.236;2023-05-31T03:12:21;14.85;;;8.38;;
44276;SDS011;29973;43.742;1.236;2023-05-31T03:14:47;13.50;;;8.15;;
44276;SDS011;29973;43.742;1.236;2023-05-31T03:17:12;15.80;;;7.53;;
44276;SDS011;29973;43.742;1.236;2023-05-31T03:19:38;11.60;;;7.18;;
44276;SDS011;29973;43.742;1.236;2023-05-31T03:22:04;12.52;;;8.13;;
44276;SDS011;29973;43.742;1.236;2023-05-31T03:24:29;13.45;;;8.10;;
44276;SDS011;29973;43.742;1.236;2023-05-31T03:26:55;11.65;;;7.55;;
44276;SDS011;29973;43.742;1.236;2023-05-31T03:29:21;10.55;;;7.90;;
44276;SDS011;29973;43.742;1.236;2023-05-31T03:31:47;12.55;;;7.53;;
44276;SDS011;29973;43.742;1.236;2023-05-31T03:34:13;9.88;;;7.07;;
44276;SDS011;29973;43.742;1.236;2023-05-31T03:36:38;15.15;;;7.45;;
44276;SDS011;29973;43.742;1.236;2023-05-31T03:39:04;11.68;;;7.63;;
44276;SDS011;29973;43.742;1.236;2023-05-31T03:41:31;13.43;;;8.18;;
44276;SDS011;29973;43.742;1.236;2023-05-31T03:43:57;19.38;;;10.07;;
44276;SDS011;29973;43.742;1.236;2023-05-31T03:46:23;14.23;;;9.88;;
44276;SDS011;29973;43.742;1.236;2023-05-31T03:48:50;17.58;;;10.30;;
44276;SDS011;29973;43.742;1.236;2023-05-31T03:51:16;13.32;;;7.50;;
44276;SDS011;29973;43.742;1.236;2023-05-31T03:53:41;13.35;;;6.85;;
44276;SDS011;29973;43.742;1.236;2023-05-31T03:56:07;12.40;;;6.93;;
44276;SDS011;29973;43.742;1.236;2023-05-31T03:58:33;12.32;;;7.15;;
44276;SDS011;29973;43.742;1.236;2023-05-31T04:00:58;10.70;;;7.10;;
44276;SDS011;29973;43.742;1.236;2023-05-31T04:03:24;13.30;;;7.18;;
44276;SDS011;29973;43.742;1.236;2023-05-31T04:05:50;12.68;;;8.05;;
44276;SDS011;29973;43.742;1.236;2023-05-31T04:08:15;13.50;;;7.55;;
44276;SDS011;29973;43.742;1.236;2023-05-31T04:10:42;12.60;;;7.50;;
44276;SDS011;29973;43.742;1.236;2023-05-31T04:13:07;9.82;;;7.18;;
44276;SDS011;29973;43.742;1.236;2023-05-31T04:15:33;13.65;;;7.80;;
44276;SDS011;29973;43.742;1.236;2023-05-31T04:18:00;16.85;;;8.57;;
44276;SDS011;29973;43.742;1.236;2023-05-31T04:20:25;20.40;;;7.88;;
44276;SDS011;29973;43.742;1.236;2023-05-31T04:22:51;14.25;;;7.57;;
44276;SDS011;29973;43.742;1.236;2023-05-31T04:25:18;14.25;;;7.65;;
44276;SDS011;29973;43.742;1.236;2023-05-31T04:27:47;14.13;;;7.63;;
44276;SDS011;29973;43.742;1.236;2023-05-31T04:30:14;13.35;;;7.65;;
44276;SDS011;29973;43.742;1.236;2023-05-31T04:32:40;18.00;;;8.05;;
44276;SDS011;29973;43.742;1.236;2023-05-31T04:35:06;18.00;;;9.07;;
44276;SDS011;29973;43.742;1.236;2023-05-31T04:37:33;17.75;;;8.15;;
44276;SDS011;29973;43.742;1.236;2023-05-31T04:40:00;15.30;;;8.25;;
44276;SDS011;29973;43.742;1.236;2023-05-31T04:42:27;16.55;;;8.15;;
44276;SDS011;29973;43.742;1.236;2023-05-31T04:44:53;13.55;;;8.25;;
44276;SDS011;29973;43.742;1.236;2023-05-31T04:47:26;14.68;;;8.13;;
44276;SDS011;29973;43.742;1.236;2023-05-31T04:49:58;12.98;;;7.95;;
44276;SDS011;29973;43.742;1.236;2023-05-31T04:52:25;16.75;;;8.23;;
44276;SDS011;29973;43.742;1.236;2023-05-31T04:54:54;13.50;;;8.20;;
44276;SDS011;29973;43.742;1.236;2023-05-31T04:57:20;14.07;;;8.60;;
44276;SDS011;29973;43.742;1.236;2023-05-31T04:59:47;15.30;;;8.80;;
44276;SDS011;29973;43.742;1.236;2023-05-31T05:02:13;18.58;;;9.35;;
44276;SDS011;29973;43.742;1.236;2023-05-31T05:04:38;13.95;;;8.88;;
44276;SDS011;29973;43.742;1.236;2023-05-31T05:07:04;13.88;;;8.45;;
44276;SDS011;29973;43.742;1.236;2023-05-31T05:09:30;13.57;;;8.63;;
44276;SDS011;29973;43.742;1.236;2023-05-31T05:11:57;18.35;;;9.27;;
44276;SDS011;29973;43.742;1.236;2023-05-31T05:14:23;11.30;;;7.95;;
44276;SDS011;29973;43.742;1.236;2023-05-31T05:16:49;13.85;;;8.45;;
44276;SDS011;29973;43.742;1.236;2023-05-31T05:19:14;17.90;;;8.45;;
44276;SDS011;29973;43.742;1.236;2023-05-31T05:21:40;15.30;;;8.05;;
44276;SDS011;29973;43.742;1.236;2023-05-31T05:24:06;16.85;;;8.30;;
44276;SDS011;29973;43.742;1.236;2023-05-31T05:26:32;11.25;;;7.70;;
44276;SDS011;29973;43.742;1.236;2023-05-31T05:28:58;13.05;;;8.43;;
44276;SDS011;29973;43.742;1.236;2023-05-31T05:31:24;19.75;;;7.97;;
44276;SDS011;29973;43.742;1.236;2023-05-31T05:33:53;15.23;;;8.32;;
44276;SDS011;29973;43.742;1.236;2023-05-31T05:36:19;17.45;;;8.43;;
44276;SDS011;29973;43.742;1.236;2023-05-31T05:38:45;16.95;;;9.25;;
44276;SDS011;29973;43.742;1.236;2023-05-31T05:41:10;20.70;;;9.55;;
44276;SDS011;29973;43.742;1.236;2023-05-31T05:43:40;18.00;;;9.68;;
44276;SDS011;29973;43.742;1.236;2023-05-31T05:46:06;17.08;;;9.52;;
44276;SDS011;29973;43.742;1.236;2023-05-31T05:48:32;13.10;;;8.85;;
44276;SDS011;29973;43.742;1.236;2023-05-31T05:50:58;19.45;;;9.32;;
44276;SDS011;29973;43.742;1.236;2023-05-31T05:53:25;18.95;;;10.63;;
44276;SDS011;29973;43.742;1.236;2023-05-31T05:55:51;23.58;;;13.82;;
44276;SDS011;29973;43.742;1.236;2023-05-31T05:58:17;27.40;;;14.35;;
44276;SDS011;29973;43.742;1.236;2023-05-31T06:00:44;23.17;;;14.60;;
44276;SDS011;29973;43.742;1.236;2023-05-31T06:03:12;25.02;;;14.07;;
44276;SDS011;29973;43.742;1.236;2023-05-31T06:05:41;23.52;;;14.80;;
44276;SDS011;29973;43.742;1.236;2023-05-31T06:08:08;26.67;;;16.27;;
44276;SDS011;29973;43.742;1.236;2023-05-31T06:10:35;29.05;;;15.80;;
44276;SDS011;29973;43.742;1.236;2023-05-31T06:13:01;20.77;;;14.98;;
44276;SDS011;29973;43.742;1.236;2023-05-31T06:15:26;27.90;;;15.63;;
44276;SDS011;29973;43.742;1.236;2023-05-31T06:17:52;22.23;;;14.55;;
44276;SDS011;29973;43.742;1.236;2023-05-31T06:20:20;31.20;;;16.65;;
44276;SDS011;29973;43.742;1.236;2023-05-31T06:22:53;26.83;;;16.38;;
44276;SDS011;29973;43.742;1.236;2023-05-31T06:25:19;24.38;;;15.52;;
44276;SDS011;29973;43.742;1.236;2023-05-31T06:27:46;33.00;;;17.45;;
44276;SDS011;29973;43.742;1.236;2023-05-31T06:30:12;28.52;;;16.98;;
44276;SDS011;29973;43.742;1.236;2023-05-31T06:32:38;30.20;;;17.45;;
44276;SDS011;29973;43.742;1.236;2023-05-31T06:35:04;29.77;;;16.70;;
44276;SDS011;29973;43.742;1.236;2023-05-31T06:37:31;25.10;;;17.17;;
44276;SDS011;29973;43.742;1.236;2023-05-31T06:39:57;32.53;;;17.65;;
44276;SDS011;29973;43.742;1.236;2023-05-31T06:42:22;26.70;;;16.42;;
44276;SDS011;29973;43.742;1.236;2023-05-31T06:44:48;26.02;;;17.10;;
44276;SDS011;29973;43.742;1.236;2023-05-31T06:47:15;33.05;;;18.23;;
44276;SDS011;29973;43.742;1.236;2023-05-31T06:49:41;26.83;;;18.15;;
44276;SDS011;29973;43.742;1.236;2023-05-31T06:52:07;30.65;;;18.90;;
44276;SDS011;29973;43.742;1.236;2023-05-31T06:54:34;31.10;;;19.15;;
44276;SDS011;29973;43.742;1.236;2023-05-31T06:57:01;29.00;;;18.15;;
44276;SDS011;29973;43.742;1.236;2023-05-31T06:59:30;29.90;;;18.88;;
44276;SDS011;29973;43.742;1.236;2023-05-31T07:01:56;34.42;;;19.48;;
44276;SDS011;29973;43.742;1.236;2023-05-31T07:04:21;33.55;;;19.92;;
44276;SDS011;29973;43.742;1.236;2023-05-31T07:06:47;32.92;;;18.88;;
44276;SDS011;29973;43.742;1.236;2023-05-31T07:09:13;40.53;;;18.25;;
44276;SDS011;29973;43.742;1.236;2023-05-31T07:11:39;36.85;;;20.30;;
44276;SDS011;29973;43.742;1.236;2023-05-31T07:14:05;36.75;;;21.05;;
44276;SDS011;29973;43.742;1.236;2023-05-31T07:16:31;34.78;;;21.65;;
44276;SDS011;29973;43.742;1.236;2023-05-31T07:18:57;37.30;;;21.23;;
44276;SDS011;29973;43.742;1.236;2023-05-31T07:21:22;33.88;;;20.02;;
44276;SDS011;29973;43.742;1.236;2023-05-31T07:23:49;41.17;;;20.58;;
44276;SDS011;29973;43.742;1.236;2023-05-31T07:26:15;33.92;;;19.38;;
44276;SDS011;29973;43.742;1.236;2023-05-31T07:28:44;32.25;;;19.95;;
44276;SDS011;29973;43.742;1.236;2023-05-31T07:31:11;33.08;;;18.98;;
44276;SDS011;29973;43.742;1.236;2023-05-31T07:33:37;32.60;;;19.27;;
44276;SDS011;29973;43.742;1.236;2023-05-31T07:36:03;27.77;;;18.77;;
44276;SDS011;29973;43.742;1.236;2023-05-31T07:38:29;35.40;;;20.10;;
44276;SDS011;29973;43.742;1.236;2023-05-31T07:40:55;37.13;;;19.48;;
44276;SDS011;29973;43.742;1.236;2023-05-31T07:43:23;30.38;;;18.77;;
44276;SDS011;29973;43.742;1.236;2023-05-31T07:45:49;26.00;;;17.85;;
44276;SDS011;29973;43.742;1.236;2023-05-31T07:48:19;31.15;;;17.23;;
44276;SDS011;29973;43.742;1.236;2023-05-31T07:50:45;34.15;;;17.13;;
44276;SDS011;29973;43.742;1.236;2023-05-31T07:53:11;30.52;;;17.70;;
44276;SDS011;29973;43.742;1.236;2023-05-31T07:55:37;30.83;;;16.85;;
44276;SDS011;29973;43.742;1.236;2023-05-31T07:58:03;28.65;;;16.80;;
44276;SDS011;29973;43.742;1.236;2023-05-31T08:00:29;28.45;;;17.92;;
44276;SDS011;29973;43.742;1.236;2023-05-31T08:02:55;33.35;;;18.55;;
44276;SDS011;29973;43.742;1.236;2023-05-31T08:05:20;31.65;;;18.00;;
44276;SDS011;29973;43.742;1.236;2023-05-31T08:07:47;28.75;;;17.15;;
44276;SDS011;29973;43.742;1.236;2023-05-31T08:10:14;25.67;;;16.30;;
44276;SDS011;29973;43.742;1.236;2023-05-31T08:12:40;26.48;;;15.50;;
44276;SDS011;29973;43.742;1.236;2023-05-31T08:15:06;30.65;;;16.40;;
44276;SDS011;29973;43.742;1.236;2023-05-31T08:17:32;26.63;;;16.23;;
44276;SDS011;29973;43.742;1.236;2023-05-31T08:19:58;26.60;;;16.25;;
44276;SDS011;29973;43.742;1.236;2023-05-31T08:22:23;25.60;;;14.30;;
44276;SDS011;29973;43.742;1.236;2023-05-31T08:24:49;30.90;;;15.93;;
44276;SDS011;29973;43.742;1.236;2023-05-31T08:27:15;25.02;;;16.00;;
44276;SDS011;29973;43.742;1.236;2023-05-31T08:29:42;24.55;;;15.65;;
44276;SDS011;29973;43.742;1.236;2023-05-31T08:32:08;24.40;;;14.95;;
44276;SDS011;29973;43.742;1.236;2023-05-31T08:34:34;26.67;;;15.43;;
44276;SDS011;29973;43.742;1.236;2023-05-31T08:36:59;24.15;;;14.30;;
44276;SDS011;29973;43.742;1.236;2023-05-31T08:39:25;22.10;;;14.63;;
44276;SDS011;29973;43.742;1.236;2023-05-31T08:44:21;20.63;;;14.23;;
44276;SDS011;29973;43.742;1.236;2023-05-31T08:46:48;22.40;;;13.65;;
44276;SDS011;29973;43.742;1.236;2023-05-31T08:49:14;25.05;;;14.32;;
44276;SDS011;29973;43.742;1.236;2023-05-31T08:51:41;23.75;;;13.05;;
44276;SDS011;29973;43.742;1.236;2023-05-31T08:54:13;23.98;;;13.27;;
44276;SDS011;29973;43.742;1.236;2023-05-31T08:56:39;19.33;;;12.73;;
44276;SDS011;29973;43.742;1.236;2023-05-31T08:59:10;19.00;;;12.65;;
44276;SDS011;29973;43.742;1.236;2023-05-31T09:01:41;28.10;;;13.80;;
44276;SDS011;29973;43.742;1.236;2023-05-31T09:04:08;22.52;;;13.10;;
44276;SDS011;29973;43.742;1.236;2023-05-31T09:06:35;20.95;;;13.55;;
44276;SDS011;29973;43.742;1.236;2023-05-31T09:09:01;18.50;;;12.65;;
44276;SDS011;29973;43.742;1.236;2023-05-31T09:11:28;19.42;;;11.73;;
44276;SDS011;29973;43.742;1.236;2023-05-31T09:13:54;21.92;;;12.23;;
44276;SDS011;29973;43.742;1.236;2023-05-31T09:16:20;23.15;;;12.80;;
44276;SDS011;29973;43.742;1.236;2023-05-31T09:18:51;21.60;;;12.55;;
44276;SDS011;29973;43.742;1.236;2023-05-31T09:21:25;23.35;;;13.02;;
44276;SDS011;29973;43.742;1.236;2023-05-31T09:23:51;19.55;;;13.13;;
44276;SDS011;29973;43.742;1.236;2023-05-31T09:26:18;19.90;;;12.23;;
44276;SDS011;29973;43.742;1.236;2023-05-31T09:28:48;19.00;;;12.52;;
44276;SDS011;29973;43.742;1.236;2023-05-31T09:33:43;19.65;;;12.35;;
44276;SDS011;29973;43.742;1.236;2023-05-31T09:36:12;18.77;;;12.38;;
44276;SDS011;29973;43.742;1.236;2023-05-31T09:38:39;19.98;;;11.40;;
44276;SDS011;29973;43.742;1.236;2023-05-31T09:43:48;19.38;;;12.05;;
44276;SDS011;29973;43.742;1.236;2023-05-31T09:46:18;23.65;;;12.40;;
44276;SDS011;29973;43.742;1.236;2023-05-31T09:48:46;19.13;;;10.93;;
44276;SDS011;29973;43.742;1.236;2023-05-31T09:51:22;17.95;;;12.00;;
44276;SDS011;29973;43.742;1.236;2023-05-31T09:53:48;18.65;;;12.00;;
44276;SDS011;29973;43.742;1.236;2023-05-31T09:56:20;17.13;;;10.73;;
44276;SDS011;29973;43.742;1.236;2023-05-31T09:58:50;16.80;;;11.52;;
44276;SDS011;29973;43.742;1.236;2023-05-31T10:01:16;16.55;;;11.10;;
44276;SDS011;29973;43.742;1.236;2023-05-31T10:03:43;17.67;;;10.73;;
44276;SDS011;29973;43.742;1.236;2023-05-31T10:06:09;17.15;;;10.70;;
44276;SDS011;29973;43.742;1.236;2023-05-31T10:08:36;14.35;;;10.65;;
44276;SDS011;29973;43.742;1.236;2023-05-31T10:11:02;15.93;;;10.52;;
44276;SDS011;29973;43.742;1.236;2023-05-31T10:13:29;20.67;;;11.05;;
44276;SDS011;29973;43.742;1.236;2023-05-31T10:15:57;16.05;;;10.55;;
44276;SDS011;29973;43.742;1.236;2023-05-31T10:18:28;21.58;;;10.38;;
44276;SDS011;29973;43.742;1.236;2023-05-31T10:21:00;12.88;;;9.25;;
44276;SDS011;29973;43.742;1.236;2023-05-31T10:23:34;14.80;;;9.93;;
44276;SDS011;29973;43.742;1.236;2023-05-31T10:26:11;16.98;;;10.65;;
44276;SDS011;29973;43.742;1.236;2023-05-31T10:29:42;13.60;;;9.65;;
44276;SDS011;29973;43.742;1.236;2023-05-31T10:31:41;13.65;;;9.60;;
44276;SDS011;29973;43.742;1.236;2023-05-31T10:34:17;16.08;;;9.48;;
44276;SDS011;29973;43.742;1.236;2023-05-31T10:36:47;16.27;;;9.15;;
44276;SDS011;29973;43.742;1.236;2023-05-31T10:44:39;13.85;;;9.30;;
44276;SDS011;29973;43.742;1.236;2023-05-31T10:47:12;13.40;;;9.10;;
44276;SDS011;29973;43.742;1.236;2023-05-31T10:49:41;15.80;;;8.68;;
44276;SDS011;29973;43.742;1.236;2023-05-31T10:52:09;14.48;;;8.68;;
44276;SDS011;29973;43.742;1.236;2023-05-31T10:54:35;15.18;;;8.90;;
44276;SDS011;29973;43.742;1.236;2023-05-31T10:57:04;13.95;;;8.43;;
44276;SDS011;29973;43.742;1.236;2023-05-31T10:59:39;11.70;;;8.52;;
44276;SDS011;29973;43.742;1.236;2023-05-31T11:02:07;18.58;;;9.43;;
44276;SDS011;29973;43.742;1.236;2023-05-31T11:04:34;14.85;;;9.10;;
44276;SDS011;29973;43.742;1.236;2023-05-31T11:07:18;13.88;;;8.70;;
44276;SDS011;29973;43.742;1.236;2023-05-31T11:09:54;17.50;;;9.00;;
44276;SDS011;29973;43.742;1.236;2023-05-31T11:12:31;13.32;;;8.52;;
44276;SDS011;29973;43.742;1.236;2023-05-31T11:14:59;15.23;;;8.98;;
44276;SDS011;29973;43.742;1.236;2023-05-31T11:17:26;16.13;;;9.77;;
44276;SDS011;29973;43.742;1.236;2023-05-31T11:19:51;15.98;;;9.30;;
44276;SDS011;29973;43.742;1.236;2023-05-31T11:22:21;19.10;;;9.85;;
44276;SDS011;29973;43.742;1.236;2023-05-31T11:27:18;15.88;;;8.55;;
44276;SDS011;29973;43.742;1.236;2023-05-31T11:32:20;14.55;;;8.63;;
44276;SDS011;29973;43.742;1.236;2023-05-31T11:35:06;11.75;;;8.48;;
44276;SDS011;29973;43.742;1.236;2023-05-31T11:37:34;16.50;;;8.38;;
44276;SDS011;29973;43.742;1.236;2023-05-31T11:42:34;17.10;;;8.38;;
44276;SDS011;29973;43.742;1.236;2023-05-31T11:45:08;16.52;;;8.15;;
44276;SDS011;29973;43.742;1.236;2023-05-31T11:50:24;15.25;;;7.70;;
44276;SDS011;29973;43.742;1.236;2023-05-31T11:52:50;12.05;;;8.40;;
44276;SDS011;29973;43.742;1.236;2023-05-31T11:55:20;16.38;;;7.85;;
44276;SDS011;29973;43.742;1.236;2023-05-31T11:57:46;18.10;;;7.97;;
44276;SDS011;29973;43.742;1.236;2023-05-31T12:00:17;12.07;;;7.50;;
44276;SDS011;29973;43.742;1.236;2023-05-31T12:02:46;15.25;;;7.85;;
44276;SDS011;29973;43.742;1.236;2023-05-31T12:05:21;13.07;;;7.90;;
44276;SDS011;29973;43.742;1.236;2023-05-31T12:07:47;13.30;;;7.70;;
44276;SDS011;29973;43.742;1.236;2023-05-31T12:10:17;13.00;;;7.00;;
44276;SDS011;29973;43.742;1.236;2023-05-31T12:12:42;11.98;;;7.40;;
44276;SDS011;29973;43.742;1.236;2023-05-31T12:15:12;11.95;;;7.18;;
44276;SDS011;29973;43.742;1.236;2023-05-31T12:17:39;12.60;;;7.30;;
44276;SDS011;29973;43.742;1.236;2023-05-31T12:20:05;11.57;;;7.18;;
44276;SDS011;29973;43.742;1.236;2023-05-31T12:22:33;11.98;;;7.32;;
44276;SDS011;29973;43.742;1.236;2023-05-31T12:24:58;15.90;;;7.45;;
44276;SDS011;29973;43.742;1.236;2023-05-31T12:27:26;12.70;;;7.18;;
44276;SDS011;29973;43.742;1.236;2023-05-31T12:30:00;10.32;;;7.13;;
44276;SDS011;29973;43.742;1.236;2023-05-31T12:32:27;9.80;;;6.80;;
44276;SDS011;29973;43.742;1.236;2023-05-31T12:35:07;10.27;;;6.80;;
44276;SDS011;29973;43.742;1.236;2023-05-31T12:37:37;11.80;;;7.22;;
44276;SDS011;29973;43.742;1.236;2023-05-31T12:40:07;10.40;;;6.53;;
44276;SDS011;29973;43.742;1.236;2023-05-31T12:42:34;8.50;;;6.15;;
44276;SDS011;29973;43.742;1.236;2023-05-31T12:45:10;12.60;;;7.30;;
44276;SDS011;29973;43.742;1.236;2023-05-31T12:47:36;10.70;;;6.25;;
44276;SDS011;29973;43.742;1.236;2023-05-31T12:50:11;10.55;;;6.82;;
44276;SDS011;29973;43.742;1.236;2023-05-31T12:52:37;13.60;;;6.82;;
44276;SDS011;29973;43.742;1.236;2023-05-31T12:55:04;16.00;;;6.35;;
44276;SDS011;29973;43.742;1.236;2023-05-31T12:57:30;10.40;;;6.07;;
44276;SDS011;29973;43.742;1.236;2023-05-31T13:00:01;11.07;;;6.22;;
44276;SDS011;29973;43.742;1.236;2023-05-31T13:05:04;11.02;;;6.40;;
44276;SDS011;29973;43.742;1.236;2023-05-31T13:07:30;11.90;;;6.57;;
44276;SDS011;29973;43.742;1.236;2023-05-31T13:09:56;9.25;;;6.30;;
44276;SDS011;29973;43.742;1.236;2023-05-31T13:12:21;8.30;;;6.32;;
44276;SDS011;29973;43.742;1.236;2023-05-31T13:14:47;10.43;;;5.68;;
44276;SDS011;29973;43.742;1.236;2023-05-31T13:17:13;9.07;;;5.53;;
44276;SDS011;29973;43.742;1.236;2023-05-31T13:19:40;9.00;;;6.10;;
44276;SDS011;29973;43.742;1.236;2023-05-31T13:22:05;8.07;;;5.72;;
44276;SDS011;29973;43.742;1.236;2023-05-31T13:24:31;11.75;;;5.93;;
44276;SDS011;29973;43.742;1.236;2023-05-31T13:26:57;14.45;;;6.72;;
44276;SDS011;29973;43.742;1.236;2023-05-31T13:29:23;14.50;;;6.65;;
44276;SDS011;29973;43.742;1.236;2023-05-31T13:31:50;12.00;;;7.15;;
44276;SDS011;29973;43.742;1.236;2023-05-31T13:34:16;8.40;;;5.78;;
44276;SDS011;29973;43.742;1.236;2023-05-31T13:36:43;13.25;;;6.45;;
44276;SDS011;29973;43.742;1.236;2023-05-31T13:39:08;8.32;;;6.00;;
44276;SDS011;29973;43.742;1.236;2023-05-31T13:41:38;10.88;;;7.05;;
44276;SDS011;29973;43.742;1.236;2023-05-31T13:44:04;12.40;;;6.05;;
44276;SDS011;29973;43.742;1.236;2023-05-31T13:46:31;8.98;;;6.05;;
44276;SDS011;29973;43.742;1.236;2023-05-31T13:48:57;16.63;;;6.07;;
44276;SDS011;29973;43.742;1.236;2023-05-31T13:51:22;10.50;;;6.47;;
44276;SDS011;29973;43.742;1.236;2023-05-31T13:53:48;10.98;;;5.93;;
44276;SDS011;29973;43.742;1.236;2023-05-31T13:56:14;14.23;;;5.65;;
44276;SDS011;29973;43.742;1.236;2023-05-31T13:58:40;8.15;;;5.57;;
44276;SDS011;29973;43.742;1.236;2023-05-31T14:01:05;7.78;;;6.03;;
44276;SDS011;29973;43.742;1.236;2023-05-31T14:03:36;8.80;;;5.67;;
44276;SDS011;29973;43.742;1.236;2023-05-31T14:06:05;6.93;;;5.82;;
44276;SDS011;29973;43.742;1.236;2023-05-31T14:08:31;8.40;;;5.80;;
44276;SDS011;29973;43.742;1.236;2023-05-31T14:10:58;7.45;;;5.93;;
44276;SDS011;29973;43.742;1.236;2023-05-31T14:13:23;9.93;;;5.35;;
44276;SDS011;29973;43.742;1.236;2023-05-31T14:15:51;9.82;;;5.88;;
44276;SDS011;29973;43.742;1.236;2023-05-31T14:18:17;7.30;;;4.15;;
44276;SDS011;29973;43.742;1.236;2023-05-31T14:20:42;11.57;;;3.95;;
44276;SDS011;29973;43.742;1.236;2023-05-31T14:23:10;7.88;;;3.40;;
44276;SDS011;29973;43.742;1.236;2023-05-31T14:25:36;7.13;;;3.78;;
44276;SDS011;29973;43.742;1.236;2023-05-31T14:28:02;9.52;;;3.28;;
44276;SDS011;29973;43.742;1.236;2023-05-31T14:30:27;4.28;;;3.22;;
44276;SDS011;29973;43.742;1.236;2023-05-31T14:32:53;5.95;;;3.28;;
44276;SDS011;29973;43.742;1.236;2023-05-31T14:35:19;7.32;;;3.67;;
44276;SDS011;29973;43.742;1.236;2023-05-31T14:37:46;6.95;;;4.22;;
44276;SDS011;29973;43.742;1.236;2023-05-31T14:40:12;9.65;;;4.30;;
44276;SDS011;29973;43.742;1.236;2023-05-31T14:42:38;5.93;;;3.97;;
44276;SDS011;29973;43.742;1.236;2023-05-31T14:45:03;7.25;;;3.72;;
44276;SDS011;29973;43.742;1.236;2023-05-31T14:47:30;5.65;;;3.28;;
44276;SDS011;29973;43.742;1.236;2023-05-31T14:49:58;11.20;;;4.03;;
44276;SDS011;29973;43.742;1.236;2023-05-31T14:52:24;6.82;;;3.65;;
44276;SDS011;29973;43.742;1.236;2023-05-31T14:54:50;17.45;;;4.50;;
44276;SDS011;29973;43.742;1.236;2023-05-31T14:57:15;14.77;;;4.45;;
44276;SDS011;29973;43.742;1.236;2023-05-31T14:59:41;11.88;;;4.60;;
44276;SDS011;29973;43.742;1.236;2023-05-31T15:02:07;6.55;;;3.78;;
44276;SDS011;29973;43.742;1.236;2023-05-31T15:04:34;7.88;;;4.60;;